createdAt,value
2018-03-16T00:01:22.485Z,2.90
2018-03-16T00:03:48.915Z,2.40
2018-03-16T00:06:15.127Z,2.30
2018-03-16T00:08:41.288Z,2.30
2018-03-16T00:11:07.459Z,2.37
2018-03-16T00:13:34.036Z,2.17
2018-03-16T00:16:00.218Z,2.20
2018-03-16T00:18:26.394Z,2.63
2018-03-16T00:20:52.840Z,2.53
2018-03-16T00:23:19.029Z,2.10
2018-03-16T00:25:45.239Z,2.70
2018-03-16T00:28:11.434Z,2.10
2018-03-16T00:30:37.644Z,2.30
2018-03-16T00:33:03.857Z,2.67
2018-03-16T00:35:30.040Z,2.23
2018-03-16T00:37:56.276Z,1.90
2018-03-16T00:40:22.747Z,2.20
2018-03-16T00:42:48.940Z,2.43
2018-03-16T00:45:15.191Z,2.17
2018-03-16T00:47:41.640Z,2.20
2018-03-16T00:50:07.861Z,2.40
2018-03-16T00:52:34.070Z,2.50
2018-03-16T00:55:00.273Z,2.00
2018-03-16T00:57:26.455Z,2.33
2018-03-16T00:59:52.624Z,2.30
2018-03-16T01:02:18.850Z,2.10
2018-03-16T01:04:45.074Z,2.33
2018-03-16T01:07:11.260Z,2.70
2018-03-16T01:09:37.418Z,2.17
2018-03-16T01:12:03.708Z,2.00
2018-03-16T01:14:29.902Z,2.70
2018-03-16T01:16:56.376Z,2.20
2018-03-16T01:19:22.529Z,1.93
2018-03-16T01:21:48.720Z,2.53
2018-03-16T01:24:14.887Z,2.83
2018-03-16T01:26:41.101Z,2.50
2018-03-16T01:29:07.281Z,2.43
2018-03-16T01:31:33.450Z,2.13
2018-03-16T01:33:59.685Z,2.37
2018-03-16T01:36:25.877Z,2.50
2018-03-16T01:38:52.069Z,2.37
2018-03-16T01:41:18.557Z,2.10
2018-03-16T01:43:44.724Z,2.60
2018-03-16T01:46:10.883Z,2.10
2018-03-16T01:48:37.119Z,2.20
2018-03-16T01:51:03.323Z,2.30
2018-03-16T01:53:29.505Z,1.93
2018-03-16T01:55:55.722Z,2.50
2018-03-16T01:58:21.908Z,2.20
2018-03-16T02:00:48.092Z,2.03
2018-03-16T02:03:14.304Z,2.20
2018-03-16T02:05:40.466Z,2.60
2018-03-16T02:08:06.667Z,2.20
2018-03-16T02:10:32.843Z,2.20
2018-03-16T02:12:59.079Z,2.60
2018-03-16T02:15:25.262Z,2.63
2018-03-16T02:17:51.668Z,2.30
2018-03-16T02:20:17.875Z,2.70
2018-03-16T02:22:44.329Z,2.70
2018-03-16T02:25:10.508Z,2.40
2018-03-16T02:27:37.096Z,2.70
2018-03-16T02:30:03.630Z,2.50
2018-03-16T02:32:29.822Z,2.73
2018-03-16T02:34:55.996Z,2.07
2018-03-16T02:37:22.520Z,2.50
2018-03-16T02:39:48.742Z,2.37
2018-03-16T02:42:14.937Z,2.43
2018-03-16T02:44:41.431Z,2.53
2018-03-16T02:47:07.679Z,2.57
2018-03-16T02:49:33.866Z,2.80
2018-03-16T02:52:00.057Z,2.47
2018-03-16T02:54:26.274Z,2.67
2018-03-16T02:56:52.520Z,2.50
2018-03-16T02:59:18.736Z,2.93
2018-03-16T03:01:44.956Z,2.50
2018-03-16T03:04:11.398Z,2.80
2018-03-16T03:06:37.880Z,2.73
2018-03-16T03:09:04.436Z,2.43
2018-03-16T03:11:30.619Z,2.73
2018-03-16T03:13:56.758Z,2.23
2018-03-16T03:16:22.946Z,2.13
2018-03-16T03:18:49.113Z,2.50
2018-03-16T03:21:15.457Z,2.97
2018-03-16T03:23:41.648Z,2.50
2018-03-16T03:26:07.835Z,2.07
2018-03-16T03:28:34.199Z,2.50
2018-03-16T03:31:00.425Z,2.47
2018-03-16T03:33:26.825Z,2.70
2018-03-16T03:35:53.035Z,2.50
2018-03-16T03:38:19.250Z,2.53
2018-03-16T03:40:45.449Z,2.60
2018-03-16T03:43:11.693Z,2.30
2018-03-16T03:45:37.851Z,2.67
2018-03-16T03:48:04.365Z,2.40
2018-03-16T03:50:30.536Z,2.20
2018-03-16T03:52:56.770Z,2.40
2018-03-16T03:55:23.005Z,2.63
2018-03-16T03:57:49.147Z,2.80
2018-03-16T04:00:15.612Z,2.20
2018-03-16T04:02:41.898Z,2.33
2018-03-16T04:05:08.124Z,2.43
2018-03-16T04:07:34.315Z,2.57
2018-03-16T04:10:00.522Z,2.40
2018-03-16T04:12:26.934Z,2.60
2018-03-16T04:14:53.424Z,2.40
2018-03-16T04:17:19.594Z,2.30
2018-03-16T04:19:46.069Z,2.57
2018-03-16T04:22:12.584Z,2.40
2018-03-16T04:24:38.765Z,2.40
2018-03-16T04:27:05.059Z,2.47
2018-03-16T04:29:31.526Z,2.67
2018-03-16T04:31:58.117Z,2.10
2018-03-16T04:34:24.548Z,2.90
2018-03-16T04:36:50.720Z,2.67
2018-03-16T04:39:16.975Z,3.00
2018-03-16T04:41:43.138Z,2.50
2018-03-16T04:44:09.355Z,2.50
2018-03-16T04:46:35.523Z,2.23
2018-03-16T04:49:01.678Z,2.70
2018-03-16T04:51:27.875Z,2.73
2018-03-16T04:53:54.109Z,2.40
2018-03-16T04:56:20.294Z,2.47
2018-03-16T04:58:46.518Z,2.83
2018-03-16T05:01:12.695Z,2.47
2018-03-16T05:03:38.925Z,2.50
2018-03-16T05:06:05.414Z,2.50
2018-03-16T05:08:31.578Z,2.40
2018-03-16T05:10:57.802Z,2.30
2018-03-16T05:13:23.998Z,3.00
2018-03-16T05:15:50.239Z,2.30
2018-03-16T05:18:16.398Z,2.80
2018-03-16T05:20:42.568Z,2.90
2018-03-16T05:23:08.752Z,2.83
2018-03-16T05:25:34.947Z,2.77
2018-03-16T05:28:01.128Z,2.53
2018-03-16T05:30:27.308Z,2.53
2018-03-16T05:32:53.504Z,2.40
2018-03-16T05:35:19.720Z,2.73
2018-03-16T05:37:45.941Z,2.40
2018-03-16T05:40:12.188Z,3.00
2018-03-16T05:42:38.558Z,2.70
2018-03-16T05:45:04.749Z,2.33
2018-03-16T05:47:30.947Z,2.70
2018-03-16T05:49:57.406Z,2.80
2018-03-16T05:52:23.556Z,2.77
2018-03-16T05:54:50.074Z,2.63
2018-03-16T05:57:16.240Z,2.30
2018-03-16T05:59:42.666Z,2.80
2018-03-16T06:02:09.892Z,2.53
2018-03-16T06:04:36.072Z,2.83
2018-03-16T06:07:02.241Z,3.60
2018-03-16T06:09:28.471Z,2.67
2018-03-16T06:11:54.904Z,3.50
2018-03-16T06:14:21.058Z,3.60
2018-03-16T06:16:47.255Z,3.43
2018-03-16T06:19:13.427Z,3.67
2018-03-16T06:21:39.648Z,3.90
2018-03-16T06:24:05.819Z,3.90
2018-03-16T06:26:32.074Z,3.40
2018-03-16T06:28:58.255Z,3.97
2018-03-16T06:31:24.436Z,4.87
2018-03-16T06:33:50.646Z,4.13
2018-03-16T06:36:16.876Z,3.53
2018-03-16T06:38:43.059Z,4.30
2018-03-16T06:41:09.248Z,3.03
2018-03-16T06:43:35.443Z,3.97
2018-03-16T06:46:01.680Z,4.23
2018-03-16T06:48:27.886Z,3.77
2018-03-16T06:50:54.349Z,3.63
2018-03-16T06:53:23.459Z,3.70
2018-03-16T06:55:49.649Z,3.87
2018-03-16T06:58:16.100Z,3.83
2018-03-16T07:00:42.275Z,2.93
2018-03-16T07:03:08.461Z,3.47
2018-03-16T07:05:34.670Z,3.53
2018-03-16T07:08:00.875Z,3.87
2018-03-16T07:10:27.069Z,4.30
2018-03-16T07:12:53.287Z,3.43
2018-03-16T07:15:31.617Z,3.70
2018-03-16T07:17:57.813Z,4.70
2018-03-16T07:20:24.050Z,3.40
2018-03-16T07:22:50.231Z,4.10
2018-03-16T07:25:16.421Z,3.40
2018-03-16T07:27:42.923Z,4.20
2018-03-16T07:30:09.115Z,3.30
2018-03-16T07:32:35.332Z,3.40
2018-03-16T07:35:01.575Z,4.40
2018-03-16T07:37:27.784Z,3.30
2018-03-16T07:39:53.971Z,3.53
2018-03-16T07:42:20.187Z,4.33
2018-03-16T07:44:46.355Z,3.03
2018-03-16T07:47:12.839Z,3.37
2018-03-16T07:49:39.044Z,3.60
2018-03-16T07:52:05.496Z,3.20
2018-03-16T07:54:31.724Z,3.10
2018-03-16T07:56:57.939Z,3.97
2018-03-16T07:59:24.176Z,3.53
2018-03-16T08:01:50.367Z,3.53
2018-03-16T08:04:16.596Z,3.03
2018-03-16T08:06:42.766Z,3.50
2018-03-16T08:09:08.941Z,4.10
2018-03-16T08:11:35.254Z,3.10
2018-03-16T08:14:01.457Z,3.03
2018-03-16T08:16:27.630Z,3.17
2018-03-16T08:18:53.878Z,2.90
2018-03-16T08:21:20.070Z,3.33
2018-03-16T08:23:46.264Z,3.17
2018-03-16T08:26:12.479Z,3.07
2018-03-16T08:28:38.692Z,3.43
2018-03-16T08:31:04.880Z,3.47
2018-03-16T08:33:31.044Z,2.57
2018-03-16T08:35:57.515Z,3.27
2018-03-16T08:38:23.699Z,2.93
2018-03-16T08:40:50.211Z,3.00
2018-03-16T08:43:16.506Z,3.17
2018-03-16T08:45:42.705Z,2.87
2018-03-16T08:48:09.137Z,2.97
2018-03-16T08:50:35.620Z,2.70
2018-03-16T08:53:02.041Z,3.00
2018-03-16T08:55:28.449Z,2.83
2018-03-16T08:58:00.783Z,2.97
2018-03-16T09:00:26.959Z,3.00
2018-03-16T09:02:53.220Z,2.53
2018-03-16T09:05:19.509Z,2.87
2018-03-16T09:07:45.684Z,3.13
2018-03-16T09:10:11.897Z,3.07
2018-03-16T09:12:38.069Z,3.57
2018-03-16T09:15:04.302Z,2.97
2018-03-16T09:17:30.455Z,3.13
2018-03-16T09:19:56.695Z,2.10
2018-03-16T09:22:22.900Z,2.80
2018-03-16T09:24:49.202Z,2.70
2018-03-16T09:27:15.443Z,3.10
2018-03-16T09:29:42.017Z,2.90
2018-03-16T09:32:08.183Z,2.43
2018-03-16T09:34:34.674Z,2.50
2018-03-16T09:37:00.836Z,2.80
2018-03-16T09:39:27.076Z,2.63
2018-03-16T09:41:53.286Z,3.03
2018-03-16T09:44:19.452Z,2.27
2018-03-16T09:46:45.914Z,2.30
2018-03-16T09:49:12.108Z,2.33
2018-03-16T09:51:38.311Z,2.90
2018-03-16T09:54:04.480Z,2.50
2018-03-16T09:56:30.735Z,2.87
2018-03-16T09:58:57.022Z,2.47
2018-03-16T10:01:23.292Z,2.10
2018-03-16T10:03:49.780Z,3.00
2018-03-16T10:06:16.225Z,2.40
2018-03-16T10:08:42.630Z,2.47
2018-03-16T10:11:08.887Z,3.57
2018-03-16T10:13:35.061Z,2.63
2018-03-16T10:16:01.239Z,2.47
2018-03-16T10:18:27.472Z,2.93
2018-03-16T10:20:53.623Z,2.70
2018-03-16T10:23:19.821Z,2.20
2018-03-16T10:25:46.031Z,2.50
2018-03-16T10:28:12.513Z,2.77
2018-03-16T10:30:38.719Z,2.80
2018-03-16T10:33:04.888Z,2.37
2018-03-16T10:35:31.067Z,2.77
2018-03-16T10:37:57.344Z,2.30
2018-03-16T10:40:23.532Z,2.43
2018-03-16T10:42:49.750Z,2.07
2018-03-16T10:45:15.941Z,2.40
2018-03-16T10:47:42.442Z,2.73
2018-03-16T10:50:08.625Z,2.53
2018-03-16T10:52:34.784Z,1.90
2018-03-16T10:55:00.987Z,2.30
2018-03-16T10:57:27.286Z,2.50
2018-03-16T10:59:53.462Z,2.17
2018-03-16T11:02:20.010Z,2.53
2018-03-16T11:04:46.241Z,2.33
2018-03-16T11:07:19.489Z,2.50
2018-03-16T11:09:54.565Z,2.07
2018-03-16T11:12:20.827Z,2.20
2018-03-16T11:14:47.040Z,2.07
2018-03-16T11:17:13.264Z,2.13
2018-03-16T11:19:39.480Z,1.80
2018-03-16T11:22:05.657Z,2.80
2018-03-16T11:24:32.136Z,2.20
2018-03-16T11:26:58.578Z,2.13
2018-03-16T11:29:25.109Z,2.10
2018-03-16T11:31:51.642Z,2.73
2018-03-16T11:34:18.078Z,2.10
2018-03-16T11:36:44.247Z,2.20
2018-03-16T11:39:10.487Z,2.20
2018-03-16T11:41:36.661Z,1.97
2018-03-16T11:44:02.856Z,1.90
2018-03-16T11:46:29.342Z,2.20
2018-03-16T11:48:55.523Z,2.83
2018-03-16T11:51:21.716Z,1.87
2018-03-16T11:53:47.948Z,2.37
2018-03-16T11:56:14.442Z,2.50
2018-03-16T11:58:40.723Z,2.13
2018-03-16T12:01:06.958Z,2.20
2018-03-16T12:03:33.129Z,2.60
2018-03-16T12:05:59.312Z,2.00
2018-03-16T12:08:25.503Z,2.20
2018-03-16T12:10:52.017Z,2.20
2018-03-16T12:13:18.286Z,2.00
2018-03-16T12:15:44.454Z,2.30
2018-03-16T12:18:10.647Z,2.37
2018-03-16T12:20:36.872Z,1.97
2018-03-16T12:23:03.069Z,2.40
2018-03-16T12:25:29.239Z,2.20
2018-03-16T12:27:55.817Z,2.80
2018-03-16T12:30:21.974Z,2.40
2018-03-16T12:32:48.132Z,1.90
2018-03-16T12:35:14.340Z,2.33
2018-03-16T12:37:40.533Z,2.03
2018-03-16T12:40:06.735Z,2.40
2018-03-16T12:42:33.180Z,2.20
2018-03-16T12:44:59.407Z,2.00
2018-03-16T12:47:25.585Z,2.30
2018-03-16T12:49:51.756Z,2.07
2018-03-16T12:52:17.969Z,2.23
2018-03-16T12:54:44.151Z,1.83
2018-03-16T12:57:10.385Z,1.70
2018-03-16T12:59:36.608Z,2.30
2018-03-16T13:02:03.221Z,2.37
2018-03-16T13:04:29.453Z,2.37
2018-03-16T13:06:55.701Z,2.70
2018-03-16T13:09:21.968Z,2.73
2018-03-16T13:11:48.183Z,3.20
2018-03-16T13:14:14.400Z,4.63
2018-03-16T13:16:40.632Z,3.17
2018-03-16T13:19:07.068Z,3.30
2018-03-16T13:21:33.508Z,2.10
2018-03-16T13:23:59.773Z,3.10
2018-03-16T13:26:25.956Z,4.23
2018-03-16T13:28:52.175Z,4.03
2018-03-16T13:31:18.360Z,3.80
2018-03-16T13:33:44.585Z,3.50
2018-03-16T13:36:11.125Z,3.23
2018-03-16T13:38:37.350Z,3.60
2018-03-16T13:41:03.513Z,2.80
2018-03-16T13:43:29.764Z,3.70
2018-03-16T13:45:55.953Z,3.53
2018-03-16T13:48:22.125Z,2.90
2018-03-16T13:50:48.697Z,2.87
2018-03-16T13:53:14.930Z,2.70
2018-03-16T13:55:41.172Z,3.10
2018-03-16T13:58:07.439Z,3.20
2018-03-16T14:00:33.635Z,2.70
2018-03-16T14:02:59.840Z,2.73
2018-03-16T14:05:26.012Z,2.23
2018-03-16T14:07:52.255Z,2.80
2018-03-16T14:10:18.489Z,2.93
2018-03-16T14:12:44.688Z,2.80
2018-03-16T14:15:10.885Z,2.83
2018-03-16T14:17:37.135Z,2.50
2018-03-16T14:20:03.314Z,2.30
2018-03-16T14:22:29.535Z,2.97
2018-03-16T14:24:55.701Z,2.77
2018-03-16T14:27:21.896Z,3.00
2018-03-16T14:29:48.117Z,2.50
2018-03-16T14:32:14.570Z,2.33
2018-03-16T14:34:40.779Z,3.00
2018-03-16T14:37:06.941Z,2.70
2018-03-16T14:39:33.199Z,2.80
2018-03-16T14:41:59.385Z,2.50
2018-03-16T14:44:25.568Z,2.40
2018-03-16T14:46:51.761Z,2.37
2018-03-16T14:49:18.168Z,2.70
2018-03-16T14:51:44.377Z,2.17
2018-03-16T14:54:10.537Z,2.53
2018-03-16T14:56:36.747Z,2.30
2018-03-16T14:59:02.951Z,2.40
2018-03-16T15:01:29.417Z,2.10
2018-03-16T15:03:55.615Z,2.93
2018-03-16T15:06:22.075Z,2.77
2018-03-16T15:08:48.389Z,2.17
2018-03-16T15:11:14.593Z,2.00
2018-03-16T15:13:40.770Z,2.00
2018-03-16T15:16:06.986Z,1.90
2018-03-16T15:18:33.163Z,1.93
2018-03-16T15:20:59.402Z,1.87
2018-03-16T15:23:25.875Z,2.27
2018-03-16T15:25:52.090Z,1.77
2018-03-16T15:28:18.320Z,2.40
2018-03-16T15:30:44.500Z,2.00
2018-03-16T15:33:10.697Z,2.20
2018-03-16T15:35:36.904Z,2.60
2018-03-16T15:38:03.356Z,2.07
2018-03-16T15:40:29.557Z,3.03
2018-03-16T15:42:55.811Z,2.10
2018-03-16T15:45:22.042Z,2.10
2018-03-16T15:47:48.264Z,2.20
2018-03-16T15:50:14.472Z,2.10
2018-03-16T15:52:41.029Z,1.80
2018-03-16T15:55:07.206Z,1.97
2018-03-16T15:57:33.378Z,1.60
2018-03-16T15:59:59.614Z,1.60
2018-03-16T16:02:25.845Z,1.80
2018-03-16T16:04:59.230Z,1.80
2018-03-16T16:07:25.436Z,1.93
2018-03-16T16:09:51.743Z,1.40
2018-03-16T16:12:17.937Z,1.80
2018-03-16T16:14:44.148Z,2.00
2018-03-16T16:17:10.683Z,1.90
2018-03-16T16:19:36.905Z,2.33
2018-03-16T16:22:03.105Z,1.50
2018-03-16T16:24:29.345Z,2.30
2018-03-16T16:26:55.532Z,1.80
2018-03-16T16:29:21.707Z,2.07
2018-03-16T16:31:47.933Z,1.93
2018-03-16T16:34:14.116Z,1.67
2018-03-16T16:36:40.325Z,1.97
2018-03-16T16:39:06.502Z,1.90
2018-03-16T16:41:32.725Z,1.73
2018-03-16T16:43:58.904Z,2.10
2018-03-16T16:46:25.060Z,1.60
2018-03-16T16:48:51.293Z,1.70
2018-03-16T16:51:17.532Z,1.53
2018-03-16T16:53:43.998Z,1.80
2018-03-16T16:56:10.213Z,1.60
2018-03-16T16:58:36.461Z,2.00
2018-03-16T17:01:02.991Z,1.77
2018-03-16T17:03:29.167Z,2.10
2018-03-16T17:05:55.354Z,1.77
2018-03-16T17:08:21.508Z,1.60
2018-03-16T17:10:47.730Z,1.57
2018-03-16T17:13:13.911Z,1.40
2018-03-16T17:15:40.126Z,1.97
2018-03-16T17:18:06.299Z,1.30
2018-03-16T17:20:32.461Z,1.70
2018-03-16T17:22:58.645Z,1.80
2018-03-16T17:25:24.827Z,1.60
2018-03-16T17:27:51.032Z,1.77
2018-03-16T17:30:17.530Z,1.40
2018-03-16T17:32:44.060Z,1.63
2018-03-16T17:35:10.236Z,2.50
2018-03-16T17:37:36.721Z,1.63
2018-03-16T17:40:03.043Z,1.63
2018-03-16T17:42:29.479Z,1.97
2018-03-16T17:44:55.632Z,1.40
2018-03-16T17:47:22.149Z,1.70
2018-03-16T17:49:48.406Z,1.80
2018-03-16T17:52:14.637Z,1.20
2018-03-16T17:54:40.778Z,1.30
2018-03-16T17:57:07.007Z,1.63
2018-03-16T17:59:33.179Z,1.47
2018-03-16T18:01:59.393Z,1.30
2018-03-16T18:04:25.668Z,1.57
2018-03-16T18:06:52.175Z,1.40
2018-03-16T18:09:18.449Z,1.50
2018-03-16T18:11:44.737Z,1.50
2018-03-16T18:14:10.936Z,1.67
2018-03-16T18:16:37.088Z,1.50
2018-03-16T18:19:09.658Z,1.67
2018-03-16T18:21:35.860Z,1.20
2018-03-16T18:24:02.048Z,1.70
2018-03-16T18:26:28.261Z,2.10
2018-03-16T18:28:54.780Z,1.63
2018-03-16T18:31:20.955Z,1.47
2018-03-16T18:33:47.151Z,1.77
2018-03-16T18:36:13.373Z,1.83
2018-03-16T18:38:39.588Z,1.40
2018-03-16T18:41:05.761Z,1.50
2018-03-16T18:43:31.973Z,1.33
2018-03-16T18:45:58.198Z,1.10
2018-03-16T18:48:24.449Z,1.43
2018-03-16T18:50:50.696Z,1.50
2018-03-16T18:53:16.885Z,1.40
2018-03-16T18:55:43.087Z,1.20
2018-03-16T18:58:09.250Z,1.30
2018-03-16T19:00:35.418Z,1.50
2018-03-16T19:03:01.631Z,1.70
2018-03-16T19:05:27.841Z,1.23
2018-03-16T19:07:53.990Z,1.67
2018-03-16T19:10:20.234Z,1.30
2018-03-16T19:12:46.499Z,1.60
2018-03-16T19:15:12.739Z,1.20
2018-03-16T19:17:38.982Z,1.47
2018-03-16T19:20:05.195Z,1.33
2018-03-16T19:22:31.479Z,1.60
2018-03-16T19:24:57.693Z,1.37
2018-03-16T19:27:23.831Z,1.23
2018-03-16T19:29:50.085Z,1.30
2018-03-16T19:32:16.268Z,1.30
2018-03-16T19:34:42.439Z,1.70
2018-03-16T19:37:08.637Z,1.57
2018-03-16T19:39:34.804Z,1.17
2018-03-16T19:42:00.996Z,1.20
2018-03-16T19:44:27.210Z,1.40
2018-03-16T19:46:53.427Z,1.00
2018-03-16T19:49:19.602Z,1.37
2018-03-16T19:51:45.763Z,1.27
2018-03-16T19:54:11.931Z,1.10
2018-03-16T19:56:38.104Z,1.40
2018-03-16T19:59:04.335Z,1.60
2018-03-16T20:01:30.498Z,1.20
2018-03-16T20:03:56.727Z,1.40
2018-03-16T20:06:22.913Z,1.50
2018-03-16T20:08:49.081Z,1.20
2018-03-16T20:11:15.292Z,1.50
2018-03-16T20:13:41.440Z,1.03
2018-03-16T20:16:07.683Z,1.63
2018-03-16T20:18:33.959Z,1.33
2018-03-16T20:21:00.160Z,1.30
2018-03-16T20:23:26.428Z,1.43
2018-03-16T20:25:52.708Z,1.20
2018-03-16T20:28:18.939Z,1.00
2018-03-16T20:30:45.183Z,1.30
2018-03-16T20:33:11.440Z,1.20
2018-03-16T20:35:37.981Z,1.30
2018-03-16T20:38:04.271Z,1.30
2018-03-16T20:40:36.685Z,1.23
2018-03-16T20:43:02.897Z,1.20
2018-03-16T20:45:29.083Z,1.10
2018-03-16T20:47:55.352Z,1.40
2018-03-16T20:50:21.598Z,1.33
2018-03-16T20:52:48.098Z,1.17
2018-03-16T20:55:14.649Z,1.13
2018-03-16T20:57:40.833Z,1.30
2018-03-16T21:00:07.088Z,1.20
2018-03-16T21:02:33.348Z,1.20
2018-03-16T21:04:59.695Z,1.00
2018-03-16T21:07:25.888Z,1.40
2018-03-16T21:09:52.122Z,1.27
2018-03-16T21:12:18.353Z,1.60
2018-03-16T21:14:44.552Z,1.20
2018-03-16T21:17:11.090Z,1.17
2018-03-16T21:19:37.299Z,1.47
2018-03-16T21:22:03.543Z,1.20
2018-03-16T21:24:29.760Z,1.10
2018-03-16T21:26:55.977Z,1.30
2018-03-16T21:29:22.200Z,1.70
2018-03-16T21:31:48.408Z,1.33
2018-03-16T21:34:14.693Z,1.37
2018-03-16T21:36:40.915Z,1.10
2018-03-16T21:39:07.250Z,1.40
2018-03-16T21:41:33.467Z,1.23
2018-03-16T21:43:59.708Z,1.07
2018-03-16T21:46:25.912Z,1.13
2018-03-16T21:48:52.134Z,1.60
2018-03-16T21:51:18.377Z,1.20
2018-03-16T21:53:44.916Z,1.20
2018-03-16T21:56:11.124Z,1.30
2018-03-16T21:58:37.349Z,1.30
2018-03-16T22:01:03.581Z,1.50
2018-03-16T22:03:29.878Z,1.40
2018-03-16T22:05:56.120Z,1.60
2018-03-16T22:08:22.346Z,1.33
2018-03-16T22:10:48.609Z,1.30
2018-03-16T22:13:14.852Z,1.30
2018-03-16T22:15:41.044Z,0.97
2018-03-16T22:18:07.214Z,1.53
2018-03-16T22:20:33.467Z,1.33
2018-03-16T22:22:59.646Z,1.13
2018-03-16T22:25:25.906Z,1.40
2018-03-16T22:27:52.109Z,1.10
2018-03-16T22:30:18.349Z,1.40
2018-03-16T22:32:44.871Z,1.40
2018-03-16T22:35:11.408Z,1.37
2018-03-16T22:37:37.574Z,1.30
2018-03-16T22:40:03.764Z,1.20
2018-03-16T22:42:30.295Z,1.17
2018-03-16T22:44:56.834Z,1.47
2018-03-16T22:47:23.365Z,1.40
2018-03-16T22:49:49.552Z,1.40
2018-03-16T22:52:15.764Z,1.30
2018-03-16T22:54:41.976Z,1.33
2018-03-16T22:57:08.208Z,1.30
2018-03-16T22:59:34.709Z,1.40
2018-03-16T23:02:00.856Z,1.10
2018-03-16T23:04:27.075Z,1.13
2018-03-16T23:06:53.266Z,1.30
2018-03-16T23:09:19.407Z,1.30
2018-03-16T23:11:45.595Z,1.20
2018-03-16T23:14:11.796Z,1.23
2018-03-16T23:16:37.993Z,1.30
2018-03-16T23:19:04.162Z,1.40
2018-03-16T23:21:30.384Z,1.20
2018-03-16T23:23:56.554Z,1.20
2018-03-16T23:26:22.841Z,1.20
2018-03-16T23:28:49.085Z,1.30
2018-03-16T23:31:15.260Z,1.10
2018-03-16T23:33:41.466Z,1.23
2018-03-16T23:36:07.622Z,1.00
2018-03-16T23:38:33.838Z,1.40
2018-03-16T23:41:00.058Z,1.50
2018-03-16T23:43:26.224Z,1.30
2018-03-16T23:45:52.430Z,1.07
2018-03-16T23:48:18.618Z,1.10
2018-03-16T23:50:44.783Z,1.07
2018-03-16T23:53:11.045Z,1.50
2018-03-16T23:55:37.214Z,1.00
2018-03-16T23:58:03.411Z,1.10
